createdAt,value
2023-03-23T15:58:36.013Z,16.38
2023-03-23T16:01:27.035Z,16.39
2023-03-23T16:04:17.839Z,16.36
2023-03-23T16:07:07.159Z,16.36
2023-03-23T16:09:55.637Z,16.34
2023-03-23T16:12:45.506Z,16.35
2023-03-23T16:15:34.190Z,16.30
2023-03-23T16:18:23.722Z,16.02
2023-03-23T16:21:12.229Z,16.32
2023-03-23T16:24:01.426Z,16.23
2023-03-23T16:26:50.050Z,16.20
2023-03-23T16:29:59.891Z,16.21
2023-03-23T16:32:48.447Z,16.16
2023-03-23T16:35:37.594Z,16.15
2023-03-23T16:38:26.399Z,16.13
2023-03-23T16:41:14.917Z,16.08
2023-03-23T16:44:03.417Z,16.11
2023-03-23T16:46:53.314Z,16.03
2023-03-23T16:49:41.783Z,15.99
2023-03-23T16:52:30.345Z,15.95
2023-03-23T16:55:18.987Z,15.77
2023-03-23T17:00:59.551Z,16.00
2023-03-23T17:03:49.612Z,15.95
2023-03-23T17:06:38.376Z,15.79
2023-03-23T17:09:27.072Z,15.81
2023-03-23T17:12:15.503Z,15.73
2023-03-23T17:15:04.605Z,15.72
2023-03-23T17:17:54.021Z,15.68
2023-03-23T17:20:43.950Z,15.53
2023-03-23T17:23:32.438Z,15.60
2023-03-23T17:26:20.988Z,15.56
2023-03-23T17:29:09.476Z,15.60
2023-03-23T17:31:58.111Z,15.57
2023-03-23T17:34:46.821Z,15.43
2023-03-23T17:37:37.859Z,15.49
2023-03-23T17:40:26.632Z,15.49
2023-03-23T17:43:15.197Z,15.51
2023-03-23T17:46:03.711Z,15.49
2023-03-23T17:48:52.612Z,15.59
2023-03-23T17:51:41.599Z,15.49
2023-03-23T17:54:32.009Z,15.64
2023-03-23T17:57:20.742Z,15.46
2023-03-23T18:00:11.289Z,15.44
2023-03-23T18:02:59.884Z,15.42
2023-03-23T18:05:48.571Z,15.35
2023-03-23T18:08:37.613Z,15.29
2023-03-23T18:11:28.115Z,15.27
2023-03-23T18:14:16.647Z,15.23
2023-03-23T18:17:05.348Z,15.22
2023-03-23T18:19:53.789Z,15.23
2023-03-23T18:22:42.283Z,15.20
2023-03-23T18:25:30.806Z,15.18
2023-03-23T18:28:20.665Z,15.15
2023-03-23T18:31:11.366Z,15.15
2023-03-23T18:33:59.851Z,15.12
2023-03-23T18:36:48.337Z,15.09
2023-03-23T18:39:37.946Z,15.04
2023-03-23T18:42:26.755Z,15.02
2023-03-23T18:45:16.691Z,14.99
2023-03-23T18:48:05.682Z,14.93
2023-03-23T18:50:56.123Z,14.93
2023-03-23T18:53:44.652Z,14.86
2023-03-23T18:56:33.244Z,14.83
2023-03-23T18:59:23.971Z,14.83
2023-03-23T19:02:13.919Z,14.78
2023-03-23T19:05:02.502Z,14.80
2023-03-23T19:07:53.122Z,14.91
2023-03-23T19:10:43.085Z,14.58
2023-03-23T19:13:33.979Z,14.67
2023-03-23T19:16:22.975Z,14.71
2023-03-23T19:19:12.921Z,14.72
2023-03-23T19:22:01.427Z,14.67
2023-03-23T19:24:49.931Z,14.62
2023-03-23T19:28:05.784Z,14.69
2023-03-23T19:30:47.930Z,14.82
2023-03-23T19:33:36.784Z,14.92
2023-03-23T19:36:27.155Z,14.99
2023-03-23T19:39:15.849Z,15.16
2023-03-23T19:42:04.807Z,15.18
2023-03-23T19:44:53.443Z,15.52
2023-03-23T19:47:42.083Z,15.40
2023-03-23T19:50:31.678Z,15.36
2023-03-23T19:53:21.842Z,15.33
2023-03-23T19:56:13.464Z,15.15
2023-03-23T19:59:02.029Z,15.16
2023-03-23T20:01:50.550Z,15.24
2023-03-23T20:04:39.976Z,14.91
2023-03-23T20:07:28.701Z,15.18
2023-03-23T20:10:18.898Z,15.12
2023-03-23T20:13:08.146Z,15.05
2023-03-23T20:15:59.703Z,15.15
2023-03-23T20:18:50.317Z,14.87
2023-03-23T20:21:39.684Z,15.06
2023-03-23T20:24:28.374Z,15.01
2023-03-23T20:27:18.714Z,15.12
2023-03-23T20:30:08.565Z,15.11
2023-03-23T20:32:58.196Z,15.01
2023-03-23T20:35:46.879Z,14.96
2023-03-23T20:38:37.321Z,14.81
2023-03-23T20:41:26.180Z,14.90
2023-03-23T20:44:16.235Z,14.85
2023-03-23T20:47:06.057Z,14.80
2023-03-23T20:49:55.209Z,14.76
2023-03-23T20:52:44.708Z,14.67
2023-03-23T20:55:33.214Z,14.81
2023-03-23T20:58:22.520Z,14.83
2023-03-23T21:01:12.763Z,14.89
2023-03-23T21:04:02.932Z,14.91
2023-03-23T21:06:51.809Z,14.84
2023-03-23T21:09:40.792Z,14.82
2023-03-23T21:12:29.312Z,14.79
2023-03-23T21:15:17.955Z,14.88
2023-03-23T21:18:08.101Z,14.84
2023-03-23T21:20:57.208Z,15.08
2023-03-23T21:23:52.107Z,15.02
2023-03-23T21:26:44.420Z,14.94
2023-03-23T21:29:32.920Z,15.08
2023-03-23T21:32:22.811Z,15.05
2023-03-23T21:35:12.944Z,15.08
2023-03-23T21:38:01.485Z,14.91
2023-03-23T21:40:49.971Z,15.06
2023-03-23T21:43:40.646Z,14.98
2023-03-23T21:46:29.285Z,14.93
2023-03-23T21:49:17.784Z,14.88
2023-03-23T21:52:07.638Z,14.90
2023-03-23T21:54:58.790Z,14.83
2023-03-23T21:57:47.917Z,14.74
2023-03-23T22:00:36.428Z,14.82
2023-03-23T22:03:25.667Z,14.02
2023-03-23T22:06:17.037Z,14.70
2023-03-23T22:09:07.014Z,14.71
2023-03-23T22:11:55.728Z,14.78
2023-03-23T22:14:44.697Z,14.73
2023-03-23T22:17:33.293Z,14.78
2023-03-23T22:20:21.950Z,14.66
2023-03-23T22:23:10.874Z,14.61
2023-03-23T22:26:00.972Z,14.72
2023-03-23T22:28:51.081Z,14.79
2023-03-23T22:31:40.875Z,14.79
2023-03-23T22:34:29.644Z,14.87
2023-03-23T22:37:18.736Z,14.91
2023-03-23T22:40:09.630Z,14.70
2023-03-23T22:42:59.637Z,14.68
2023-03-23T22:45:50.709Z,14.66
2023-03-23T22:48:39.499Z,14.60
2023-03-23T22:51:28.243Z,14.16
2023-03-23T22:54:16.848Z,14.56
2023-03-23T22:57:05.526Z,14.52
2023-03-23T22:59:55.509Z,14.49
2023-03-23T23:02:44.445Z,14.49
2023-03-23T23:05:33.119Z,14.51
2023-03-23T23:08:21.957Z,14.32
2023-03-23T23:11:12.619Z,14.36
2023-03-23T23:14:01.219Z,14.45
2023-03-23T23:16:51.779Z,14.29
2023-03-23T23:19:40.534Z,14.36
2023-03-23T23:22:29.116Z,14.38
2023-03-23T23:25:17.780Z,14.33
2023-03-23T23:28:07.454Z,14.22
2023-03-23T23:30:56.326Z,14.19
2023-03-23T23:33:46.366Z,14.12
2023-03-23T23:36:34.959Z,13.99
2023-03-23T23:39:23.575Z,14.03
2023-03-23T23:42:12.622Z,13.87
2023-03-23T23:45:01.295Z,13.75
2023-03-23T23:47:50.343Z,13.68
2023-03-23T23:50:40.347Z,13.62
2023-03-23T23:53:28.882Z,13.57
2023-03-23T23:56:19.280Z,13.49
2023-03-23T23:59:07.865Z,13.42
